Terminal Aerodrome Forecast
Issued by NWS

Home | Current Version | Previous Version | Text Only | Print | Product List | Glossary On
Versions: 1 2 3 4 5 6 7 8 9 10 11 12 13 14 15 16 17
000
FTUS46 KMTR 052338
TAFSNS
TAF
KSNS 052338Z 0600/0624 27008KT P6SM BKN200
     FM060300 26004KT P6SM BKN200
     FM060700 VRB03KT P6SM SCT007
     FM061500 20004KT P6SM SCT200
     FM061800 27006KT P6SM SCT200=

USA.gov is the U.S. government's official web portal to all federal, state and local government web resources and services.